createdAt,value
2022-11-27T00:00:18.148Z,64.03
2022-11-27T00:03:20.298Z,59.25
2022-11-27T00:06:25.807Z,57.97
2022-11-27T00:09:28.163Z,60.92
2022-11-27T00:12:31.012Z,59.17
2022-11-27T00:15:33.894Z,68.23
2022-11-27T00:18:36.757Z,70.10
2022-11-27T00:21:39.047Z,63.72
2022-11-27T00:24:43.481Z,67.30
2022-11-27T00:27:45.745Z,72.53
2022-11-27T00:30:48.287Z,75.53
2022-11-27T00:33:50.669Z,65.97
2022-11-27T00:36:53.187Z,80.45
2022-11-27T00:39:55.387Z,69.18
2022-11-27T00:42:57.899Z,70.95
2022-11-27T00:46:00.370Z,67.57
2022-11-27T00:49:05.175Z,69.53
2022-11-27T00:52:07.774Z,67.85
2022-11-27T00:55:10.322Z,72.53
2022-11-27T00:58:12.573Z,65.65
2022-11-27T01:01:21.149Z,67.50
2022-11-27T01:04:23.472Z,70.70
2022-11-27T01:07:26.405Z,69.62
2022-11-27T01:10:28.944Z,67.78
2022-11-27T01:13:34.186Z,69.65
2022-11-27T01:16:42.576Z,69.67
2022-11-27T01:19:45.370Z,59.55
2022-11-27T01:22:47.644Z,66.28
2022-11-27T01:25:50.324Z,60.12
2022-11-27T01:28:56.867Z,56.63
2022-11-27T01:31:59.373Z,58.70
2022-11-27T01:35:01.615Z,65.00
2022-11-27T01:38:04.550Z,56.97
2022-11-27T01:41:18.139Z,59.13
2022-11-27T01:44:23.680Z,62.97
2022-11-27T01:47:37.877Z,59.53
2022-11-27T01:50:40.600Z,59.38
2022-11-27T01:53:43.174Z,57.85
2022-11-27T01:56:50.212Z,64.70
2022-11-27T01:59:54.619Z,58.65
2022-11-27T02:02:57.177Z,61.40
2022-11-27T02:05:59.800Z,60.05
2022-11-27T02:09:02.130Z,55.25
2022-11-27T02:12:25.159Z,55.63
2022-11-27T02:15:42.251Z,51.37
2022-11-27T02:19:07.338Z,49.40
2022-11-27T02:22:32.353Z,48.10
2022-11-27T02:25:52.200Z,49.05
2022-11-27T02:28:54.363Z,51.65
2022-11-27T02:32:13.281Z,51.63
2022-11-27T02:35:30.680Z,48.13
2022-11-27T02:38:51.628Z,56.08
2022-11-27T02:42:04.133Z,53.05
2022-11-27T02:45:16.968Z,58.00
2022-11-27T02:48:24.214Z,51.53
2022-11-27T02:51:35.395Z,56.47
2022-11-27T02:54:41.431Z,53.22
2022-11-27T02:57:45.647Z,53.33
2022-11-27T03:00:49.046Z,55.20
2022-11-27T03:03:55.510Z,53.00
2022-11-27T03:07:01.802Z,56.40
2022-11-27T03:10:20.000Z,54.97
2022-11-27T03:13:22.401Z,52.78
2022-11-27T03:16:51.476Z,53.83
2022-11-27T03:19:58.713Z,57.85
2022-11-27T03:23:01.267Z,53.13
2022-11-27T03:26:03.603Z,53.30
2022-11-27T03:29:10.850Z,52.35
2022-11-27T03:32:13.880Z,52.83
2022-11-27T03:35:19.737Z,51.17
2022-11-27T03:38:22.034Z,48.80
2022-11-27T03:41:51.870Z,52.03
2022-11-27T03:45:08.395Z,51.28
2022-11-27T03:48:37.665Z,55.65
2022-11-27T03:51:51.778Z,51.65
2022-11-27T03:55:06.454Z,49.23
2022-11-27T03:58:16.019Z,52.60
2022-11-27T04:01:22.527Z,55.75
2022-11-27T04:04:25.212Z,57.90
2022-11-27T04:07:27.511Z,53.85
2022-11-27T04:10:30.166Z,53.50
2022-11-27T04:13:32.437Z,56.13
2022-11-27T04:16:35.041Z,56.60
2022-11-27T04:19:37.322Z,54.55
2022-11-27T04:22:40.051Z,53.67
2022-11-27T04:25:42.343Z,59.30
2022-11-27T04:28:44.956Z,55.63
2022-11-27T04:31:47.240Z,60.90
2022-11-27T04:34:49.863Z,57.62
2022-11-27T04:37:52.150Z,58.45
2022-11-27T04:40:54.769Z,60.00
2022-11-27T04:43:57.007Z,62.28
2022-11-27T04:46:59.911Z,62.28
2022-11-27T04:50:02.273Z,61.67
2022-11-27T04:53:04.894Z,59.63
2022-11-27T04:56:07.432Z,61.77
2022-11-27T04:59:10.095Z,61.40
2022-11-27T05:02:12.488Z,61.60
2022-11-27T05:05:15.074Z,65.30
2022-11-27T05:08:17.321Z,64.75
2022-11-27T05:11:19.984Z,70.90
2022-11-27T05:14:24.165Z,62.78
2022-11-27T05:17:26.717Z,60.53
2022-11-27T05:20:29.050Z,60.50
2022-11-27T05:23:32.186Z,58.70
2022-11-27T05:26:34.918Z,60.20
2022-11-27T05:29:39.503Z,58.87
2022-11-27T05:32:41.786Z,56.97
2022-11-27T05:35:45.799Z,64.05
2022-11-27T05:38:48.058Z,58.08
2022-11-27T05:41:50.601Z,62.30
2022-11-27T05:44:57.911Z,57.30
2022-11-27T05:48:00.930Z,61.25
2022-11-27T05:51:04.542Z,55.25
2022-11-27T05:54:07.681Z,54.33
2022-11-27T05:57:09.866Z,52.67
2022-11-27T06:00:13.062Z,52.30
2022-11-27T06:03:17.767Z,52.17
2022-11-27T06:06:20.605Z,50.08
2022-11-27T06:09:23.276Z,53.60
2022-11-27T06:12:25.720Z,52.10
2022-11-27T06:15:28.281Z,49.75
2022-11-27T06:18:30.507Z,39.83
2022-11-27T06:21:33.095Z,46.37
2022-11-27T06:24:35.443Z,43.33
2022-11-27T06:27:38.085Z,43.70
2022-11-27T06:30:40.292Z,36.75
2022-11-27T06:33:43.017Z,40.40
2022-11-27T06:36:46.482Z,41.65
2022-11-27T06:39:50.029Z,44.65
2022-11-27T06:42:52.284Z,44.37
2022-11-27T06:45:58.872Z,43.03
2022-11-27T06:49:01.294Z,44.85
2022-11-27T06:52:04.727Z,39.30
2022-11-27T06:55:07.351Z,51.70
2022-11-27T06:58:10.516Z,49.70
2022-11-27T07:01:15.576Z,53.30
2022-11-27T07:04:18.208Z,50.75
2022-11-27T07:07:20.459Z,53.67
2022-11-27T07:10:23.089Z,54.55
2022-11-27T07:13:25.360Z,51.90
2022-11-27T07:16:33.968Z,48.28
2022-11-27T07:19:36.261Z,54.75
2022-11-27T07:22:38.839Z,52.47
2022-11-27T07:25:41.001Z,52.97
2022-11-27T07:28:44.056Z,46.97
2022-11-27T07:31:46.433Z,49.58
2022-11-27T07:34:48.968Z,46.25
2022-11-27T07:37:51.228Z,52.83
2022-11-27T07:40:54.101Z,48.80
2022-11-27T07:43:56.410Z,52.20
2022-11-27T07:46:58.980Z,50.97
2022-11-27T07:50:01.453Z,60.45
2022-11-27T07:53:04.041Z,51.13
2022-11-27T07:56:08.043Z,49.90
2022-11-27T07:59:10.555Z,49.80
2022-11-27T08:02:13.353Z,54.15
2022-11-27T08:05:16.061Z,50.50
2022-11-27T08:08:18.345Z,51.40
2022-11-27T08:11:29.963Z,48.00
2022-11-27T08:14:32.298Z,54.70
2022-11-27T08:17:34.867Z,49.60
2022-11-27T08:20:37.659Z,52.15
2022-11-27T08:23:40.433Z,49.00
2022-11-27T08:26:42.884Z,50.55
2022-11-27T08:29:45.331Z,54.73
2022-11-27T08:32:47.676Z,49.22
2022-11-27T08:35:50.622Z,52.45
2022-11-27T08:38:54.621Z,44.00
2022-11-27T08:41:57.177Z,46.95
2022-11-27T08:44:59.526Z,55.20
2022-11-27T08:48:02.009Z,45.60
2022-11-27T08:51:09.784Z,48.05
2022-11-27T08:54:12.282Z,45.95
2022-11-27T08:57:14.591Z,47.25
2022-11-27T09:00:17.596Z,50.40
2022-11-27T09:03:19.920Z,54.67
2022-11-27T09:06:25.470Z,50.05
2022-11-27T09:09:27.781Z,51.70
2022-11-27T09:12:30.303Z,52.53
2022-11-27T09:15:32.625Z,51.97
2022-11-27T09:18:35.231Z,50.58
2022-11-27T09:21:38.918Z,52.22
2022-11-27T09:24:41.785Z,53.38
2022-11-27T09:27:44.383Z,46.35
2022-11-27T09:30:47.116Z,47.53
2022-11-27T09:33:50.311Z,56.63
2022-11-27T09:36:52.926Z,54.17
2022-11-27T09:39:55.779Z,53.97
2022-11-27T09:43:09.431Z,55.03
2022-11-27T09:46:26.456Z,50.60
2022-11-27T09:49:59.018Z,46.00
2022-11-27T09:53:06.654Z,52.88
2022-11-27T09:56:14.550Z,54.17
2022-11-27T09:59:22.494Z,51.05
2022-11-27T10:02:31.994Z,59.07
2022-11-27T10:05:47.889Z,50.58
2022-11-27T10:09:19.600Z,52.50
2022-11-27T10:12:34.252Z,57.97
2022-11-27T10:15:54.321Z,58.35
2022-11-27T10:19:29.339Z,51.40
2022-11-27T10:22:37.271Z,52.55
2022-11-27T10:25:45.461Z,48.53
2022-11-27T10:29:00.363Z,64.50
2022-11-27T10:32:52.878Z,59.13
2022-11-27T10:35:43.573Z,57.13
2022-11-27T10:38:48.069Z,54.42
2022-11-27T10:42:01.045Z,52.88
2022-11-27T10:45:17.606Z,60.42
2022-11-27T10:48:20.332Z,63.90
2022-11-27T10:51:30.761Z,64.13
2022-11-27T10:54:37.919Z,66.22
2022-11-27T10:57:51.071Z,59.35
2022-11-27T11:01:15.330Z,55.80
2022-11-27T11:04:48.449Z,58.20
2022-11-27T11:07:58.705Z,56.70
2022-11-27T11:11:04.829Z,54.25
2022-11-27T11:14:27.139Z,58.97
2022-11-27T11:17:38.361Z,56.90
2022-11-27T11:20:47.478Z,62.47
2022-11-27T11:23:58.516Z,58.37
2022-11-27T11:27:26.982Z,67.18
2022-11-27T11:30:30.466Z,66.45
2022-11-27T11:33:49.158Z,69.20
2022-11-27T11:37:04.135Z,67.05
2022-11-27T11:40:20.005Z,64.30
2022-11-27T11:43:28.749Z,69.00
2022-11-27T11:46:33.979Z,67.80
2022-11-27T11:49:36.654Z,66.95
2022-11-27T11:52:44.941Z,65.68
2022-11-27T11:56:16.345Z,64.50
2022-11-27T11:59:38.573Z,60.20
2022-11-27T12:03:17.411Z,52.88
2022-11-27T12:06:59.825Z,54.22
2022-11-27T12:10:18.373Z,58.38
2022-11-27T12:13:45.085Z,55.10
2022-11-27T12:16:50.167Z,51.58
2022-11-27T12:20:17.263Z,54.92
2022-11-27T12:23:41.229Z,52.13
2022-11-27T12:26:55.874Z,50.10
2022-11-27T12:30:13.248Z,52.53
2022-11-27T12:33:19.206Z,59.55
2022-11-27T12:36:26.345Z,56.70
2022-11-27T12:39:53.712Z,49.70
2022-11-27T12:43:05.042Z,51.25
2022-11-27T12:46:20.280Z,46.33
2022-11-27T12:49:34.231Z,41.83
2022-11-27T12:52:44.803Z,43.53
2022-11-27T12:55:56.166Z,40.03
2022-11-27T12:59:42.482Z,46.47
2022-11-27T13:02:59.924Z,40.40
2022-11-27T13:06:09.693Z,44.03
2022-11-27T13:09:25.999Z,41.88
2022-11-27T13:12:42.677Z,44.63
2022-11-27T13:15:47.879Z,47.35
2022-11-27T13:19:18.636Z,46.53
2022-11-27T13:22:27.658Z,47.45
2022-11-27T13:25:32.081Z,41.13
2022-11-27T13:28:43.786Z,42.83
2022-11-27T13:31:51.905Z,49.25
2022-11-27T13:34:59.881Z,46.33
2022-11-27T13:38:22.861Z,46.58
2022-11-27T13:41:40.083Z,48.08
2022-11-27T13:44:51.718Z,45.17
2022-11-27T13:47:56.195Z,56.53
2022-11-27T13:50:59.788Z,44.47
2022-11-27T13:54:13.574Z,46.63
2022-11-27T13:57:18.108Z,43.45
2022-11-27T14:00:32.710Z,47.60
2022-11-27T14:03:36.613Z,49.55
2022-11-27T14:06:39.114Z,42.93
2022-11-27T14:09:47.234Z,38.33
2022-11-27T14:13:16.522Z,38.22
2022-11-27T14:16:36.302Z,40.65
2022-11-27T14:19:59.540Z,40.20
2022-11-27T14:23:17.533Z,37.53
2022-11-27T14:26:22.726Z,33.88
2022-11-27T14:29:30.100Z,37.75
2022-11-27T14:32:35.448Z,34.83
2022-11-27T14:35:38.017Z,40.40
2022-11-27T14:38:40.305Z,40.53
2022-11-27T14:41:42.859Z,38.08
2022-11-27T14:44:45.177Z,44.20
2022-11-27T14:47:56.512Z,42.60
2022-11-27T14:51:00.244Z,40.15
2022-11-27T14:54:11.972Z,39.47
2022-11-27T14:57:20.075Z,34.75
2022-11-27T15:00:27.435Z,40.92
2022-11-27T15:03:30.127Z,37.30
2022-11-27T15:06:51.334Z,37.75
2022-11-27T15:09:56.556Z,35.03
2022-11-27T15:13:01.964Z,35.10
2022-11-27T15:16:14.016Z,30.17
2022-11-27T15:19:26.354Z,30.83
2022-11-27T15:22:28.626Z,34.25
2022-11-27T15:25:41.034Z,37.60
2022-11-27T15:28:54.110Z,33.50
2022-11-27T15:31:56.872Z,29.55
2022-11-27T15:34:59.251Z,32.20
2022-11-27T15:38:10.220Z,35.72
2022-11-27T15:41:28.047Z,26.80
2022-11-27T15:44:32.455Z,28.65
2022-11-27T15:47:37.269Z,31.58
2022-11-27T15:50:39.826Z,27.45
2022-11-27T15:53:42.061Z,28.25
2022-11-27T15:56:46.820Z,29.47
2022-11-27T15:59:49.085Z,35.03
2022-11-27T16:02:52.664Z,28.80
2022-11-27T16:05:55.177Z,32.60
2022-11-27T16:08:58.985Z,29.98
2022-11-27T16:12:02.204Z,26.60
2022-11-27T16:15:08.846Z,28.95
2022-11-27T16:18:11.890Z,32.90
2022-11-27T16:21:15.378Z,30.05
2022-11-27T16:24:18.029Z,28.55
2022-11-27T16:27:20.905Z,31.97
2022-11-27T16:30:23.429Z,35.25
2022-11-27T16:33:26.985Z,32.22
2022-11-27T16:36:29.632Z,28.30
2022-11-27T16:39:32.536Z,28.77
2022-11-27T16:42:35.227Z,34.83
2022-11-27T16:45:38.311Z,36.38
2022-11-27T16:48:42.327Z,34.97
2022-11-27T16:51:44.777Z,33.00
2022-11-27T16:54:47.301Z,31.62
2022-11-27T16:57:49.860Z,30.27
2022-11-27T17:00:54.484Z,33.85
2022-11-27T17:03:56.996Z,30.42
2022-11-27T17:07:00.099Z,32.45
2022-11-27T17:10:02.749Z,33.80
2022-11-27T17:13:05.280Z,32.43
2022-11-27T17:16:08.818Z,34.88
2022-11-27T17:19:13.188Z,37.85
2022-11-27T17:22:16.173Z,29.23
2022-11-27T17:25:18.958Z,36.65
2022-11-27T17:28:21.209Z,33.73
2022-11-27T17:31:28.415Z,33.95
2022-11-27T17:34:31.784Z,40.42
2022-11-27T17:37:34.347Z,34.47
2022-11-27T17:40:36.632Z,36.55
2022-11-27T17:43:40.243Z,31.13
2022-11-27T17:46:48.084Z,34.10
2022-11-27T17:49:51.314Z,33.85
2022-11-27T17:52:53.708Z,27.27
2022-11-27T17:56:02.434Z,27.58
2022-11-27T17:59:05.031Z,26.73
2022-11-27T18:02:10.820Z,31.00
2022-11-27T18:05:13.566Z,30.45
2022-11-27T18:08:16.073Z,29.15
2022-11-27T18:11:21.203Z,28.40
2022-11-27T18:14:23.560Z,30.27
2022-11-27T18:17:26.302Z,30.48
2022-11-27T18:20:28.849Z,33.17
2022-11-27T18:23:31.389Z,28.52
2022-11-27T18:27:00.452Z,29.87
2022-11-27T18:29:56.474Z,27.83
2022-11-27T18:32:58.755Z,24.73
2022-11-27T18:36:01.878Z,25.25
2022-11-27T18:39:04.981Z,26.95
2022-11-27T18:42:07.978Z,27.50
2022-11-27T18:45:31.240Z,27.97
2022-11-27T18:48:34.614Z,29.02
2022-11-27T18:51:36.917Z,30.30
2022-11-27T18:54:39.475Z,28.52
2022-11-27T18:57:42.005Z,29.55
2022-11-27T19:00:45.914Z,31.57
2022-11-27T19:03:49.962Z,33.33
2022-11-27T19:06:52.563Z,35.28
2022-11-27T19:09:54.893Z,32.03
2022-11-27T19:12:57.507Z,35.72
2022-11-27T19:16:03.987Z,34.23
2022-11-27T19:19:07.403Z,35.88
2022-11-27T19:22:10.970Z,40.80
2022-11-27T19:25:15.151Z,39.97
2022-11-27T19:28:18.453Z,41.88
2022-11-27T19:31:22.123Z,39.37
2022-11-27T19:34:24.646Z,47.17
2022-11-27T19:37:34.452Z,38.85
2022-11-27T19:40:39.928Z,40.83
2022-11-27T19:43:43.188Z,44.30
2022-11-27T19:46:46.644Z,39.93
2022-11-27T19:49:49.249Z,46.83
2022-11-27T19:52:51.560Z,42.10
2022-11-27T19:55:55.077Z,38.38
2022-11-27T19:58:58.469Z,45.38
2022-11-27T20:02:01.118Z,47.27
2022-11-27T20:05:04.620Z,48.45
2022-11-27T20:08:07.453Z,43.33
2022-11-27T20:11:12.821Z,42.00
2022-11-27T20:14:15.339Z,44.17
2022-11-27T20:17:19.230Z,44.93
2022-11-27T20:20:22.060Z,43.05
2022-11-27T20:23:24.673Z,48.33
2022-11-27T20:26:28.310Z,42.55
2022-11-27T20:29:32.145Z,50.38
2022-11-27T20:32:34.693Z,48.73
2022-11-27T20:35:42.044Z,49.05
2022-11-27T20:38:45.148Z,49.33
2022-11-27T20:41:48.537Z,47.45
2022-11-27T20:44:50.905Z,51.67
2022-11-27T20:47:53.569Z,46.77
2022-11-27T20:50:56.534Z,42.80
2022-11-27T20:54:01.160Z,47.33
2022-11-27T20:57:04.177Z,48.00
2022-11-27T21:00:09.800Z,42.15
2022-11-27T21:03:12.081Z,44.07
2022-11-27T21:06:16.751Z,35.10
2022-11-27T21:09:20.276Z,38.90
2022-11-27T21:12:23.093Z,38.72
2022-11-27T21:15:25.584Z,36.35
2022-11-27T21:18:28.134Z,39.87
2022-11-27T21:21:30.506Z,36.58
2022-11-27T21:24:33.723Z,39.58
2022-11-27T21:27:37.451Z,35.63
2022-11-27T21:30:40.180Z,35.03
2022-11-27T21:33:49.722Z,31.33
2022-11-27T21:36:52.492Z,32.75
2022-11-27T21:39:54.798Z,40.42
2022-11-27T21:42:57.455Z,34.90
2022-11-27T21:46:12.733Z,31.77
2022-11-27T21:49:17.321Z,28.43
2022-11-27T21:52:19.653Z,32.63
2022-11-27T21:55:22.680Z,29.98
2022-11-27T21:58:25.372Z,31.73
2022-11-27T22:01:27.932Z,35.88
2022-11-27T22:04:30.553Z,33.60
2022-11-27T22:07:34.748Z,35.78
2022-11-27T22:10:40.627Z,37.85
2022-11-27T22:13:43.735Z,37.22
2022-11-27T22:16:47.124Z,38.22
2022-11-27T22:19:50.218Z,43.57
2022-11-27T22:22:53.329Z,40.75
2022-11-27T22:26:00.362Z,47.05
2022-11-27T22:29:03.306Z,44.08
2022-11-27T22:32:05.916Z,48.97
2022-11-27T22:35:08.832Z,45.47
2022-11-27T22:38:11.126Z,43.35
2022-11-27T22:41:14.824Z,41.65
2022-11-27T22:44:19.378Z,42.65
2022-11-27T22:47:23.475Z,47.33
2022-11-27T22:50:25.842Z,44.00
2022-11-27T22:53:29.368Z,42.42
2022-11-27T22:56:33.766Z,47.95
2022-11-27T22:59:36.512Z,46.35
2022-11-27T23:02:39.215Z,42.30
2022-11-27T23:05:45.080Z,46.17
2022-11-27T23:08:49.289Z,43.13
2022-11-27T23:11:52.820Z,43.55
2022-11-27T23:14:55.189Z,44.60
2022-11-27T23:17:58.690Z,48.70
2022-11-27T23:21:05.488Z,44.60
2022-11-27T23:24:11.254Z,49.42
2022-11-27T23:27:13.580Z,44.78
2022-11-27T23:30:16.417Z,43.38
2022-11-27T23:33:18.681Z,45.15
2022-11-27T23:36:22.234Z,43.60
2022-11-27T23:39:24.515Z,50.53
2022-11-27T23:42:27.102Z,47.33
2022-11-27T23:45:29.349Z,43.87
2022-11-27T23:48:32.381Z,45.92
2022-11-27T23:51:34.890Z,40.17
2022-11-27T23:54:37.660Z,40.72
2022-11-27T23:57:40.017Z,41.20
